sensor_id;sensor_type;location;lat;lon;timestamp;temperature;humidity
35633;DHT22;21754;48.216;-1.628;2022-12-08T00:01:42;5.60;99.90
35633;DHT22;21754;48.216;-1.628;2022-12-08T00:04:08;5.50;99.90
35633;DHT22;21754;48.216;-1.628;2022-12-08T00:06:42;5.70;99.90
35633;DHT22;21754;48.216;-1.628;2022-12-08T00:09:47;5.50;99.90
35633;DHT22;21754;48.216;-1.628;2022-12-08T00:12:14;5.70;99.90
35633;DHT22;21754;48.216;-1.628;2022-12-08T00:14:45;5.90;99.90
35633;DHT22;21754;48.216;-1.628;2022-12-08T00:17:13;5.90;99.90
35633;DHT22;21754;48.216;-1.628;2022-12-08T00:19:39;5.60;99.90
35633;DHT22;21754;48.216;-1.628;2022-12-08T00:22:09;5.90;99.90
35633;DHT22;21754;48.216;-1.628;2022-12-08T00:24:36;5.50;99.90
35633;DHT22;21754;48.216;-1.628;2022-12-08T00:27:04;5.70;99.90
35633;DHT22;21754;48.216;-1.628;2022-12-08T00:29:30;5.10;99.90
35633;DHT22;21754;48.216;-1.628;2022-12-08T00:31:56;5.10;99.90
35633;DHT22;21754;48.216;-1.628;2022-12-08T00:34:21;5.30;99.90
35633;DHT22;21754;48.216;-1.628;2022-12-08T00:36:47;5.20;99.90
35633;DHT22;21754;48.216;-1.628;2022-12-08T00:39:14;5.20;99.90
35633;DHT22;21754;48.216;-1.628;2022-12-08T00:41:40;5.40;99.90
35633;DHT22;21754;48.216;-1.628;2022-12-08T00:44:24;5.20;99.90
35633;DHT22;21754;48.216;-1.628;2022-12-08T10:35:55;5.20;99.90
35633;DHT22;21754;48.216;-1.628;2022-12-08T10:38:33;6.20;99.90
35633;DHT22;21754;48.216;-1.628;2022-12-08T10:43:31;6.30;99.90
35633;DHT22;21754;48.216;-1.628;2022-12-08T10:46:14;6.30;99.90
35633;DHT22;21754;48.216;-1.628;2022-12-08T10:49:09;6.40;99.90
35633;DHT22;21754;48.216;-1.628;2022-12-08T10:51:41;6.40;99.90
35633;DHT22;21754;48.216;-1.628;2022-12-08T10:54:33;6.40;99.90
35633;DHT22;21754;48.216;-1.628;2022-12-08T10:56:58;6.40;99.90
35633;DHT22;21754;48.216;-1.628;2022-12-08T10:59:24;6.50;99.90
35633;DHT22;21754;48.216;-1.628;2022-12-08T11:01:52;6.50;99.90
35633;DHT22;21754;48.216;-1.628;2022-12-08T11:06:49;6.40;99.90
35633;DHT22;21754;48.216;-1.628;2022-12-08T11:11:48;6.50;99.90
35633;DHT22;21754;48.216;-1.628;2022-12-08T11:16:48;6.50;99.90
35633;DHT22;21754;48.216;-1.628;2022-12-08T11:19:18;6.50;99.90
35633;DHT22;21754;48.216;-1.628;2022-12-08T11:21:44;6.60;99.90
35633;DHT22;21754;48.216;-1.628;2022-12-08T11:26:43;6.60;99.90
35633;DHT22;21754;48.216;-1.628;2022-12-08T11:29:12;6.50;99.90
35633;DHT22;21754;48.216;-1.628;2022-12-08T11:31:46;6.40;99.90
35633;DHT22;21754;48.216;-1.628;2022-12-08T11:37:04;6.50;99.90
35633;DHT22;21754;48.216;-1.628;2022-12-08T11:39:33;6.60;99.90
35633;DHT22;21754;48.216;-1.628;2022-12-08T11:42:02;6.60;99.90
35633;DHT22;21754;48.216;-1.628;2022-12-08T11:44:45;6.50;99.90
35633;DHT22;21754;48.216;-1.628;2022-12-08T11:47:22;6.60;99.90
35633;DHT22;21754;48.216;-1.628;2022-12-08T11:49:54;6.70;99.90
35633;DHT22;21754;48.216;-1.628;2022-12-08T11:52:51;6.60;99.90
35633;DHT22;21754;48.216;-1.628;2022-12-08T11:55:46;6.60;99.90
35633;DHT22;21754;48.216;-1.628;2022-12-08T11:58:48;6.70;99.90
35633;DHT22;21754;48.216;-1.628;2022-12-08T12:01:19;6.70;99.90
35633;DHT22;21754;48.216;-1.628;2022-12-08T12:04:38;6.80;99.90
35633;DHT22;21754;48.216;-1.628;2022-12-08T12:12:54;6.80;99.90
35633;DHT22;21754;48.216;-1.628;2022-12-08T12:18:26;6.80;99.90
35633;DHT22;21754;48.216;-1.628;2022-12-08T12:20:57;6.80;99.90
35633;DHT22;21754;48.216;-1.628;2022-12-08T12:23:50;6.80;99.90
35633;DHT22;21754;48.216;-1.628;2022-12-08T12:26:25;6.70;99.90
35633;DHT22;21754;48.216;-1.628;2022-12-08T12:31:32;6.90;99.90
35633;DHT22;21754;48.216;-1.628;2022-12-08T12:36:47;7.20;99.90
35633;DHT22;21754;48.216;-1.628;2022-12-08T12:39:14;7.20;99.90
35633;DHT22;21754;48.216;-1.628;2022-12-08T12:54:34;7.30;99.90
35633;DHT22;21754;48.216;-1.628;2022-12-08T13:05:25;7.20;99.90
35633;DHT22;21754;48.216;-1.628;2022-12-08T13:08:00;7.30;99.90
35633;DHT22;21754;48.216;-1.628;2022-12-08T13:10:31;7.30;99.90
35633;DHT22;21754;48.216;-1.628;2022-12-08T13:18:59;7.20;99.90
35633;DHT22;21754;48.216;-1.628;2022-12-08T13:21:45;7.20;99.90
35633;DHT22;21754;48.216;-1.628;2022-12-08T13:29:30;6.90;99.90
35633;DHT22;21754;48.216;-1.628;2022-12-08T13:31:57;7.00;99.90
35633;DHT22;21754;48.216;-1.628;2022-12-08T13:34:48;7.00;99.90
35633;DHT22;21754;48.216;-1.628;2022-12-08T13:39:56;7.10;99.90
35633;DHT22;21754;48.216;-1.628;2022-12-08T13:42:30;7.10;99.90
35633;DHT22;21754;48.216;-1.628;2022-12-08T13:44:58;7.10;99.90
35633;DHT22;21754;48.216;-1.628;2022-12-08T13:47:33;7.10;99.90
35633;DHT22;21754;48.216;-1.628;2022-12-08T13:50:12;7.10;99.90
35633;DHT22;21754;48.216;-1.628;2022-12-08T13:52:46;7.10;99.90
35633;DHT22;21754;48.216;-1.628;2022-12-08T13:55:19;7.10;99.90
35633;DHT22;21754;48.216;-1.628;2022-12-08T13:57:49;7.10;99.90
35633;DHT22;21754;48.216;-1.628;2022-12-08T14:00:17;7.10;99.90
35633;DHT22;21754;48.216;-1.628;2022-12-08T14:02:54;7.10;99.90
35633;DHT22;21754;48.216;-1.628;2022-12-08T14:05:22;7.10;99.90
35633;DHT22;21754;48.216;-1.628;2022-12-08T14:07:52;7.00;99.90
35633;DHT22;21754;48.216;-1.628;2022-12-08T14:10:27;7.00;99.90
35633;DHT22;21754;48.216;-1.628;2022-12-08T14:13:03;7.10;99.90
35633;DHT22;21754;48.216;-1.628;2022-12-08T14:15:33;7.30;99.90
35633;DHT22;21754;48.216;-1.628;2022-12-08T14:17:59;7.40;99.90
35633;DHT22;21754;48.216;-1.628;2022-12-08T14:20:26;7.40;99.90
35633;DHT22;21754;48.216;-1.628;2022-12-08T14:22:52;7.40;99.90
35633;DHT22;21754;48.216;-1.628;2022-12-08T14:25:20;7.40;99.90
35633;DHT22;21754;48.216;-1.628;2022-12-08T14:27:47;7.40;99.90
35633;DHT22;21754;48.216;-1.628;2022-12-08T14:30:21;7.40;99.90
35633;DHT22;21754;48.216;-1.628;2022-12-08T14:32:53;7.50;99.90
35633;DHT22;21754;48.216;-1.628;2022-12-08T14:35:31;7.40;99.90
35633;DHT22;21754;48.216;-1.628;2022-12-08T14:38:03;7.50;99.90
35633;DHT22;21754;48.216;-1.628;2022-12-08T14:40:34;7.50;99.90
35633;DHT22;21754;48.216;-1.628;2022-12-08T14:45:33;7.50;99.90
35633;DHT22;21754;48.216;-1.628;2022-12-08T14:58:44;7.20;99.90
35633;DHT22;21754;48.216;-1.628;2022-12-08T15:01:13;7.20;99.90
35633;DHT22;21754;48.216;-1.628;2022-12-08T15:03:41;7.20;99.90
35633;DHT22;21754;48.216;-1.628;2022-12-08T15:06:12;7.20;99.90
35633;DHT22;21754;48.216;-1.628;2022-12-08T15:08:56;7.10;99.90
35633;DHT22;21754;48.216;-1.628;2022-12-08T15:11:39;7.20;99.90
35633;DHT22;21754;48.216;-1.628;2022-12-08T15:14:52;7.20;99.90
35633;DHT22;21754;48.216;-1.628;2022-12-08T15:17:50;7.30;99.90
35633;DHT22;21754;48.216;-1.628;2022-12-08T15:23:03;7.30;99.90
35633;DHT22;21754;48.216;-1.628;2022-12-08T15:25:30;7.20;99.90
35633;DHT22;21754;48.216;-1.628;2022-12-08T15:27:55;7.10;99.90
35633;DHT22;21754;48.216;-1.628;2022-12-08T15:30:22;7.10;99.90
35633;DHT22;21754;48.216;-1.628;2022-12-08T15:32:51;7.00;99.90
35633;DHT22;21754;48.216;-1.628;2022-12-08T15:35:17;6.90;99.90
35633;DHT22;21754;48.216;-1.628;2022-12-08T15:37:43;6.90;99.90
35633;DHT22;21754;48.216;-1.628;2022-12-08T15:40:20;6.90;99.90
35633;DHT22;21754;48.216;-1.628;2022-12-08T15:42:47;6.90;99.90
35633;DHT22;21754;48.216;-1.628;2022-12-08T15:45:15;7.00;99.90
35633;DHT22;21754;48.216;-1.628;2022-12-08T15:47:41;7.10;99.90
35633;DHT22;21754;48.216;-1.628;2022-12-08T15:50:18;7.20;99.90
35633;DHT22;21754;48.216;-1.628;2022-12-08T15:52:45;7.30;99.90
35633;DHT22;21754;48.216;-1.628;2022-12-08T15:55:14;7.40;99.90
35633;DHT22;21754;48.216;-1.628;2022-12-08T15:57:43;7.50;99.90
35633;DHT22;21754;48.216;-1.628;2022-12-08T16:02:51;7.40;99.90
35633;DHT22;21754;48.216;-1.628;2022-12-08T16:05:16;7.50;99.90
35633;DHT22;21754;48.216;-1.628;2022-12-08T16:07:42;7.60;99.90
35633;DHT22;21754;48.216;-1.628;2022-12-08T16:10:16;7.70;99.90
35633;DHT22;21754;48.216;-1.628;2022-12-08T16:12:43;7.80;99.90
35633;DHT22;21754;48.216;-1.628;2022-12-08T16:15:27;7.80;99.90
35633;DHT22;21754;48.216;-1.628;2022-12-08T16:17:53;7.80;99.90
35633;DHT22;21754;48.216;-1.628;2022-12-08T16:20:20;7.80;99.90
35633;DHT22;21754;48.216;-1.628;2022-12-08T16:22:46;7.90;99.90
35633;DHT22;21754;48.216;-1.628;2022-12-08T16:25:12;8.00;99.90
35633;DHT22;21754;48.216;-1.628;2022-12-08T16:27:38;7.50;99.90
35633;DHT22;21754;48.216;-1.628;2022-12-08T16:30:07;7.70;99.90
35633;DHT22;21754;48.216;-1.628;2022-12-08T16:32:33;7.40;99.90
35633;DHT22;21754;48.216;-1.628;2022-12-08T16:34:58;7.30;99.90
35633;DHT22;21754;48.216;-1.628;2022-12-08T16:37:26;7.30;99.90
35633;DHT22;21754;48.216;-1.628;2022-12-08T16:39:56;7.30;99.90
35633;DHT22;21754;48.216;-1.628;2022-12-08T16:42:29;7.20;99.90
35633;DHT22;21754;48.216;-1.628;2022-12-08T16:47:32;7.10;99.90
35633;DHT22;21754;48.216;-1.628;2022-12-08T16:49:58;7.10;99.90
35633;DHT22;21754;48.216;-1.628;2022-12-08T16:52:24;7.20;99.90
35633;DHT22;21754;48.216;-1.628;2022-12-08T16:54:50;7.70;99.90
35633;DHT22;21754;48.216;-1.628;2022-12-08T16:57:15;7.30;99.90
35633;DHT22;21754;48.216;-1.628;2022-12-08T16:59:41;7.30;99.90
35633;DHT22;21754;48.216;-1.628;2022-12-08T17:02:07;7.30;99.90
35633;DHT22;21754;48.216;-1.628;2022-12-08T17:04:32;7.40;99.90
35633;DHT22;21754;48.216;-1.628;2022-12-08T17:06:58;7.60;99.90
35633;DHT22;21754;48.216;-1.628;2022-12-08T17:09:25;7.50;99.90
35633;DHT22;21754;48.216;-1.628;2022-12-08T17:11:51;7.60;99.90
35633;DHT22;21754;48.216;-1.628;2022-12-08T17:14:17;7.50;99.90
35633;DHT22;21754;48.216;-1.628;2022-12-08T17:16:43;7.40;99.90
35633;DHT22;21754;48.216;-1.628;2022-12-08T17:19:11;7.40;99.90
35633;DHT22;21754;48.216;-1.628;2022-12-08T17:21:37;7.30;99.90
35633;DHT22;21754;48.216;-1.628;2022-12-08T17:24:03;7.20;99.90
35633;DHT22;21754;48.216;-1.628;2022-12-08T17:26:29;7.20;99.90
35633;DHT22;21754;48.216;-1.628;2022-12-08T17:28:54;7.20;99.90
35633;DHT22;21754;48.216;-1.628;2022-12-08T17:31:20;7.10;99.90
35633;DHT22;21754;48.216;-1.628;2022-12-08T17:33:46;7.10;99.90
35633;DHT22;21754;48.216;-1.628;2022-12-08T17:36:14;7.00;99.90
35633;DHT22;21754;48.216;-1.628;2022-12-08T17:38:40;7.10;99.90
35633;DHT22;21754;48.216;-1.628;2022-12-08T17:41:08;7.10;99.90
35633;DHT22;21754;48.216;-1.628;2022-12-08T17:43:35;7.20;99.90
35633;DHT22;21754;48.216;-1.628;2022-12-08T17:46:01;7.20;99.90
35633;DHT22;21754;48.216;-1.628;2022-12-08T17:48:27;7.30;99.90
35633;DHT22;21754;48.216;-1.628;2022-12-08T17:50:53;7.30;99.90
35633;DHT22;21754;48.216;-1.628;2022-12-08T17:53:19;7.20;99.90
35633;DHT22;21754;48.216;-1.628;2022-12-08T17:55:53;7.20;99.90
35633;DHT22;21754;48.216;-1.628;2022-12-08T17:58:20;7.20;99.90
35633;DHT22;21754;48.216;-1.628;2022-12-08T18:00:45;7.20;99.90
35633;DHT22;21754;48.216;-1.628;2022-12-08T18:03:11;7.20;99.90
35633;DHT22;21754;48.216;-1.628;2022-12-08T18:05:37;7.20;99.90
35633;DHT22;21754;48.216;-1.628;2022-12-08T18:08:02;7.20;99.90
35633;DHT22;21754;48.216;-1.628;2022-12-08T18:10:28;7.20;99.90
35633;DHT22;21754;48.216;-1.628;2022-12-08T18:12:54;7.20;99.90
35633;DHT22;21754;48.216;-1.628;2022-12-08T18:15:20;7.30;99.90
35633;DHT22;21754;48.216;-1.628;2022-12-08T18:17:45;7.30;99.90
35633;DHT22;21754;48.216;-1.628;2022-12-08T18:20:12;7.40;99.90
35633;DHT22;21754;48.216;-1.628;2022-12-08T18:22:38;7.40;99.90
35633;DHT22;21754;48.216;-1.628;2022-12-08T18:25:05;7.30;99.90
35633;DHT22;21754;48.216;-1.628;2022-12-08T18:27:32;7.20;99.90
35633;DHT22;21754;48.216;-1.628;2022-12-08T18:29:58;7.20;99.90
35633;DHT22;21754;48.216;-1.628;2022-12-08T18:32:24;7.10;99.90
35633;DHT22;21754;48.216;-1.628;2022-12-08T18:34:50;7.10;99.90
35633;DHT22;21754;48.216;-1.628;2022-12-08T18:37:16;7.20;99.90
35633;DHT22;21754;48.216;-1.628;2022-12-08T18:39:42;7.20;99.90
35633;DHT22;21754;48.216;-1.628;2022-12-08T18:42:08;7.20;99.90
35633;DHT22;21754;48.216;-1.628;2022-12-08T18:44:50;7.30;99.90
35633;DHT22;21754;48.216;-1.628;2022-12-08T18:47:16;7.20;99.90
35633;DHT22;21754;48.216;-1.628;2022-12-08T18:49:42;7.10;99.90
35633;DHT22;21754;48.216;-1.628;2022-12-08T18:52:08;7.10;99.90
35633;DHT22;21754;48.216;-1.628;2022-12-08T18:54:33;7.00;99.90
35633;DHT22;21754;48.216;-1.628;2022-12-08T18:56:59;7.00;99.90
35633;DHT22;21754;48.216;-1.628;2022-12-08T18:59:25;6.90;99.90
35633;DHT22;21754;48.216;-1.628;2022-12-08T19:01:51;7.30;99.90
35633;DHT22;21754;48.216;-1.628;2022-12-08T19:04:16;6.90;99.90
35633;DHT22;21754;48.216;-1.628;2022-12-08T19:06:42;6.80;99.90
35633;DHT22;21754;48.216;-1.628;2022-12-08T19:09:10;6.90;99.90
35633;DHT22;21754;48.216;-1.628;2022-12-08T19:11:37;6.90;99.90
35633;DHT22;21754;48.216;-1.628;2022-12-08T19:14:03;7.00;99.90
35633;DHT22;21754;48.216;-1.628;2022-12-08T19:16:29;7.40;99.90
35633;DHT22;21754;48.216;-1.628;2022-12-08T19:18:55;7.10;99.90
35633;DHT22;21754;48.216;-1.628;2022-12-08T19:21:20;7.10;99.90
35633;DHT22;21754;48.216;-1.628;2022-12-08T19:23:48;7.20;99.90
35633;DHT22;21754;48.216;-1.628;2022-12-08T19:26:16;7.20;99.90
35633;DHT22;21754;48.216;-1.628;2022-12-08T19:28:42;7.60;99.90
35633;DHT22;21754;48.216;-1.628;2022-12-08T19:31:08;7.20;99.90
35633;DHT22;21754;48.216;-1.628;2022-12-08T19:33:34;7.20;99.90
35633;DHT22;21754;48.216;-1.628;2022-12-08T19:36:27;7.20;99.90
35633;DHT22;21754;48.216;-1.628;2022-12-08T19:39:03;7.20;99.90
35633;DHT22;21754;48.216;-1.628;2022-12-08T19:41:47;7.10;99.90
35633;DHT22;21754;48.216;-1.628;2022-12-08T19:44:31;7.30;99.90
35633;DHT22;21754;48.216;-1.628;2022-12-08T19:47:15;6.80;99.90
35633;DHT22;21754;48.216;-1.628;2022-12-08T19:49:41;6.80;99.90
35633;DHT22;21754;48.216;-1.628;2022-12-08T19:52:07;6.80;99.90
35633;DHT22;21754;48.216;-1.628;2022-12-08T19:54:33;6.70;99.90
35633;DHT22;21754;48.216;-1.628;2022-12-08T19:56:59;7.10;99.90
35633;DHT22;21754;48.216;-1.628;2022-12-08T19:59:25;6.80;99.90
35633;DHT22;21754;48.216;-1.628;2022-12-08T20:01:54;6.90;99.90
35633;DHT22;21754;48.216;-1.628;2022-12-08T20:04:21;6.90;99.90
35633;DHT22;21754;48.216;-1.628;2022-12-08T20:06:47;7.00;99.90
35633;DHT22;21754;48.216;-1.628;2022-12-08T20:09:13;7.10;99.90
35633;DHT22;21754;48.216;-1.628;2022-12-08T20:11:39;7.20;99.90
35633;DHT22;21754;48.216;-1.628;2022-12-08T20:14:05;7.20;99.90
35633;DHT22;21754;48.216;-1.628;2022-12-08T20:16:31;7.30;99.90
35633;DHT22;21754;48.216;-1.628;2022-12-08T20:18:57;7.30;99.90
35633;DHT22;21754;48.216;-1.628;2022-12-08T20:21:23;7.20;99.90
35633;DHT22;21754;48.216;-1.628;2022-12-08T20:23:49;7.20;99.90
35633;DHT22;21754;48.216;-1.628;2022-12-08T20:26:16;7.20;99.90
35633;DHT22;21754;48.216;-1.628;2022-12-08T20:28:42;7.20;99.90
35633;DHT22;21754;48.216;-1.628;2022-12-08T20:31:22;7.10;99.90
35633;DHT22;21754;48.216;-1.628;2022-12-08T20:33:49;7.00;99.90
35633;DHT22;21754;48.216;-1.628;2022-12-08T20:36:17;6.90;99.90
35633;DHT22;21754;48.216;-1.628;2022-12-08T20:38:47;7.00;99.90
35633;DHT22;21754;48.216;-1.628;2022-12-08T20:41:13;6.90;99.90
35633;DHT22;21754;48.216;-1.628;2022-12-08T20:43:41;7.30;99.90
35633;DHT22;21754;48.216;-1.628;2022-12-08T20:46:09;6.90;99.90
35633;DHT22;21754;48.216;-1.628;2022-12-08T20:48:34;6.90;99.90
35633;DHT22;21754;48.216;-1.628;2022-12-08T20:51:01;6.90;99.90
35633;DHT22;21754;48.216;-1.628;2022-12-08T20:53:27;7.00;99.90
35633;DHT22;21754;48.216;-1.628;2022-12-08T20:55:53;7.00;99.90
35633;DHT22;21754;48.216;-1.628;2022-12-08T20:58:19;6.90;99.90
35633;DHT22;21754;48.216;-1.628;2022-12-08T21:00:44;6.80;99.90
35633;DHT22;21754;48.216;-1.628;2022-12-08T21:03:11;6.70;99.90
35633;DHT22;21754;48.216;-1.628;2022-12-08T21:05:37;6.70;99.90
35633;DHT22;21754;48.216;-1.628;2022-12-08T21:08:04;6.60;99.90
35633;DHT22;21754;48.216;-1.628;2022-12-08T21:10:32;6.60;99.90
35633;DHT22;21754;48.216;-1.628;2022-12-08T21:12:58;6.50;99.90
35633;DHT22;21754;48.216;-1.628;2022-12-08T21:15:26;6.60;99.90
35633;DHT22;21754;48.216;-1.628;2022-12-08T21:17:52;6.90;99.90
35633;DHT22;21754;48.216;-1.628;2022-12-08T21:20:19;6.70;99.90
35633;DHT22;21754;48.216;-1.628;2022-12-08T21:22:45;6.60;99.90
35633;DHT22;21754;48.216;-1.628;2022-12-08T21:25:11;6.60;99.90
35633;DHT22;21754;48.216;-1.628;2022-12-08T21:27:37;6.60;99.90
35633;DHT22;21754;48.216;-1.628;2022-12-08T21:30:04;6.70;99.90
35633;DHT22;21754;48.216;-1.628;2022-12-08T21:32:30;6.70;99.90
35633;DHT22;21754;48.216;-1.628;2022-12-08T21:34:55;6.70;99.90
35633;DHT22;21754;48.216;-1.628;2022-12-08T21:37:21;6.70;99.90
35633;DHT22;21754;48.216;-1.628;2022-12-08T21:39:47;6.60;99.90
35633;DHT22;21754;48.216;-1.628;2022-12-08T21:42:12;6.60;99.90
35633;DHT22;21754;48.216;-1.628;2022-12-08T21:44:57;6.50;99.90
35633;DHT22;21754;48.216;-1.628;2022-12-08T21:47:22;6.50;99.90
35633;DHT22;21754;48.216;-1.628;2022-12-08T21:49:48;6.30;99.90
35633;DHT22;21754;48.216;-1.628;2022-12-08T21:52:13;6.20;99.90
35633;DHT22;21754;48.216;-1.628;2022-12-08T21:54:39;6.30;99.90
35633;DHT22;21754;48.216;-1.628;2022-12-08T21:57:05;6.50;99.90
35633;DHT22;21754;48.216;-1.628;2022-12-08T21:59:30;6.30;99.90
35633;DHT22;21754;48.216;-1.628;2022-12-08T22:01:56;6.20;99.90
35633;DHT22;21754;48.216;-1.628;2022-12-08T22:04:21;6.10;99.90
35633;DHT22;21754;48.216;-1.628;2022-12-08T22:06:49;6.10;99.90
35633;DHT22;21754;48.216;-1.628;2022-12-08T22:09:15;6.20;99.90
35633;DHT22;21754;48.216;-1.628;2022-12-08T22:11:41;6.20;99.90
35633;DHT22;21754;48.216;-1.628;2022-12-08T22:14:07;6.20;99.90
35633;DHT22;21754;48.216;-1.628;2022-12-08T22:16:33;6.20;99.90
35633;DHT22;21754;48.216;-1.628;2022-12-08T22:18:59;6.30;99.90
35633;DHT22;21754;48.216;-1.628;2022-12-08T22:21:24;6.20;99.90
35633;DHT22;21754;48.216;-1.628;2022-12-08T22:23:50;6.20;99.90
35633;DHT22;21754;48.216;-1.628;2022-12-08T22:26:16;6.30;99.90
35633;DHT22;21754;48.216;-1.628;2022-12-08T22:28:42;6.40;99.90
35633;DHT22;21754;48.216;-1.628;2022-12-08T22:31:13;6.80;99.90
35633;DHT22;21754;48.216;-1.628;2022-12-08T22:33:40;6.60;99.90
35633;DHT22;21754;48.216;-1.628;2022-12-08T22:36:06;6.70;99.90
35633;DHT22;21754;48.216;-1.628;2022-12-08T22:38:32;6.80;99.90
35633;DHT22;21754;48.216;-1.628;2022-12-08T22:40:58;6.80;99.90
35633;DHT22;21754;48.216;-1.628;2022-12-08T22:43:24;6.80;99.90
35633;DHT22;21754;48.216;-1.628;2022-12-08T22:45:50;6.90;99.90
35633;DHT22;21754;48.216;-1.628;2022-12-08T22:48:15;6.80;99.90
35633;DHT22;21754;48.216;-1.628;2022-12-08T22:50:42;6.70;99.90
35633;DHT22;21754;48.216;-1.628;2022-12-08T22:53:10;6.80;99.90
35633;DHT22;21754;48.216;-1.628;2022-12-08T22:55:41;6.70;99.90
35633;DHT22;21754;48.216;-1.628;2022-12-08T22:58:07;6.90;99.90
35633;DHT22;21754;48.216;-1.628;2022-12-08T23:00:33;6.70;99.90
35633;DHT22;21754;48.216;-1.628;2022-12-08T23:02:58;6.80;99.90
35633;DHT22;21754;48.216;-1.628;2022-12-08T23:05:24;6.70;99.90
35633;DHT22;21754;48.216;-1.628;2022-12-08T23:07:50;6.60;99.90
35633;DHT22;21754;48.216;-1.628;2022-12-08T23:10:16;6.60;99.90
35633;DHT22;21754;48.216;-1.628;2022-12-08T23:12:42;6.40;99.90
35633;DHT22;21754;48.216;-1.628;2022-12-08T23:15:11;6.40;99.90
35633;DHT22;21754;48.216;-1.628;2022-12-08T23:17:36;6.70;99.90
35633;DHT22;21754;48.216;-1.628;2022-12-08T23:20:02;6.20;99.90
35633;DHT22;21754;48.216;-1.628;2022-12-08T23:22:28;6.20;99.90
35633;DHT22;21754;48.216;-1.628;2022-12-08T23:24:54;6.10;99.90
35633;DHT22;21754;48.216;-1.628;2022-12-08T23:27:19;6.10;99.90
35633;DHT22;21754;48.216;-1.628;2022-12-08T23:29:45;6.30;99.90
35633;DHT22;21754;48.216;-1.628;2022-12-08T23:32:10;6.00;99.90
35633;DHT22;21754;48.216;-1.628;2022-12-08T23:34:36;6.00;99.90
35633;DHT22;21754;48.216;-1.628;2022-12-08T23:37:02;6.00;99.90
35633;DHT22;21754;48.216;-1.628;2022-12-08T23:39:27;6.00;99.90
35633;DHT22;21754;48.216;-1.628;2022-12-08T23:41:53;5.90;99.90
35633;DHT22;21754;48.216;-1.628;2022-12-08T23:44:19;5.80;99.90
35633;DHT22;21754;48.216;-1.628;2022-12-08T23:46:44;5.80;99.90
35633;DHT22;21754;48.216;-1.628;2022-12-08T23:49:10;5.80;99.90
